createdAt,value
2023-08-14T00:00:55.984Z,6.77
2023-08-14T00:03:24.073Z,6.17
2023-08-14T00:05:51.822Z,5.20
2023-08-14T00:08:19.108Z,4.50
2023-08-14T00:10:46.133Z,5.13
2023-08-14T00:13:13.555Z,5.33
2023-08-14T00:15:40.718Z,5.13
2023-08-14T00:18:07.776Z,4.77
2023-08-14T00:20:34.865Z,5.03
2023-08-14T00:23:01.937Z,5.33
2023-08-14T00:25:28.840Z,4.80
2023-08-14T00:27:56.164Z,5.00
2023-08-14T00:30:23.209Z,4.30
2023-08-14T00:32:50.307Z,4.43
2023-08-14T00:35:17.328Z,4.83
2023-08-14T00:37:49.535Z,4.40
2023-08-14T00:40:17.833Z,4.83
2023-08-14T00:42:49.304Z,4.40
2023-08-14T00:45:17.293Z,4.93
2023-08-14T00:47:46.956Z,4.57
2023-08-14T00:50:15.836Z,5.27
2023-08-14T00:52:46.186Z,5.57
2023-08-14T00:55:20.607Z,4.60
2023-08-14T00:57:47.581Z,5.50
2023-08-14T01:00:15.407Z,5.10
2023-08-14T01:02:44.869Z,5.00
2023-08-14T01:05:11.778Z,5.23
2023-08-14T01:07:39.478Z,6.53
2023-08-14T01:10:08.781Z,6.00
2023-08-14T01:12:44.097Z,5.90
2023-08-14T01:15:14.992Z,5.70
2023-08-14T01:17:48.328Z,5.50
2023-08-14T01:20:19.138Z,5.47
2023-08-14T01:23:21.351Z,6.00
2023-08-14T01:25:52.479Z,6.23
2023-08-14T01:28:19.878Z,5.77
2023-08-14T01:30:46.886Z,6.43
2023-08-14T01:33:13.831Z,5.50
2023-08-14T01:35:46.060Z,7.20
2023-08-14T01:38:20.662Z,6.13
2023-08-14T01:40:56.851Z,7.00
2023-08-14T01:43:28.669Z,7.00
2023-08-14T01:45:57.195Z,5.90
2023-08-14T01:48:25.437Z,6.40
2023-08-14T01:50:54.781Z,6.23
2023-08-14T01:53:22.036Z,6.60
2023-08-14T01:55:48.944Z,6.83
2023-08-14T01:58:16.125Z,5.47
2023-08-14T02:00:43.584Z,5.87
2023-08-14T02:03:10.607Z,5.97
2023-08-14T02:05:37.801Z,5.50
2023-08-14T02:08:05.169Z,5.90
2023-08-14T02:10:32.165Z,5.43
2023-08-14T02:12:59.137Z,6.10
2023-08-14T02:15:26.077Z,5.87
2023-08-14T02:17:52.955Z,6.10
2023-08-14T02:20:19.821Z,5.97
2023-08-14T02:22:47.484Z,5.80
2023-08-14T02:25:14.536Z,6.10
2023-08-14T02:27:41.861Z,5.87
2023-08-14T02:30:09.165Z,5.70
2023-08-14T02:32:36.563Z,5.33
2023-08-14T02:35:04.287Z,5.73
2023-08-14T02:37:31.597Z,5.93
2023-08-14T02:39:58.590Z,6.07
2023-08-14T02:42:25.686Z,5.53
2023-08-14T02:44:52.536Z,5.20
2023-08-14T02:47:19.606Z,6.10
2023-08-14T02:49:46.854Z,5.30
2023-08-14T02:52:13.784Z,5.40
2023-08-14T02:54:43.642Z,5.40
2023-08-14T02:57:10.469Z,5.67
2023-08-14T02:59:37.462Z,5.27
2023-08-14T03:02:04.378Z,5.70
2023-08-14T03:04:31.358Z,5.73
2023-08-14T03:06:58.255Z,5.73
2023-08-14T03:09:25.319Z,4.97
2023-08-14T03:11:52.160Z,5.67
2023-08-14T03:14:19.463Z,5.40
2023-08-14T03:16:46.451Z,5.50
2023-08-14T03:19:13.478Z,5.30
2023-08-14T03:21:43.069Z,6.67
2023-08-14T03:24:10.015Z,5.40
2023-08-14T03:26:37.083Z,5.10
2023-08-14T03:29:04.160Z,5.10
2023-08-14T03:31:33.256Z,5.77
2023-08-14T03:34:00.502Z,5.53
2023-08-14T03:36:27.636Z,5.77
2023-08-14T03:38:54.540Z,5.33
2023-08-14T03:41:21.540Z,4.90
2023-08-14T03:43:48.793Z,5.73
2023-08-14T03:46:15.715Z,4.90
2023-08-14T03:48:42.560Z,5.13
2023-08-14T03:51:10.799Z,5.30
2023-08-14T03:53:37.810Z,4.60
2023-08-14T03:56:04.947Z,4.60
2023-08-14T03:58:31.930Z,5.00
2023-08-14T04:00:58.857Z,5.83
2023-08-14T04:03:25.940Z,5.77
2023-08-14T04:05:59.411Z,5.23
2023-08-14T04:08:26.305Z,5.33
2023-08-14T04:10:58.518Z,6.90
2023-08-14T04:13:26.390Z,5.93
2023-08-14T04:16:02.975Z,5.37
2023-08-14T04:18:30.361Z,5.20
2023-08-14T04:20:58.108Z,5.43
2023-08-14T04:23:26.689Z,5.20
2023-08-14T04:25:54.428Z,4.93
2023-08-14T04:28:21.732Z,5.10
2023-08-14T04:30:48.860Z,4.93
2023-08-14T04:33:17.958Z,6.03
2023-08-14T04:35:44.928Z,4.97
2023-08-14T04:38:12.423Z,4.83
2023-08-14T04:40:39.748Z,3.93
2023-08-14T04:43:07.047Z,3.93
2023-08-14T04:45:34.194Z,4.27
2023-08-14T04:48:01.207Z,5.93
2023-08-14T04:50:28.391Z,4.33
2023-08-14T04:52:55.247Z,4.43
2023-08-14T04:55:25.084Z,4.27
2023-08-14T04:57:52.548Z,4.30
2023-08-14T05:00:22.076Z,4.57
2023-08-14T05:02:52.042Z,4.83
2023-08-14T05:05:21.072Z,5.03
2023-08-14T05:07:51.056Z,4.77
2023-08-14T05:10:18.219Z,4.00
2023-08-14T05:12:45.100Z,4.67
2023-08-14T05:15:12.437Z,4.23
2023-08-14T05:17:39.382Z,4.13
2023-08-14T05:20:10.421Z,4.70
2023-08-14T05:22:37.339Z,4.27
2023-08-14T05:25:04.629Z,3.93
2023-08-14T05:27:37.904Z,4.07
2023-08-14T05:30:05.171Z,4.30
2023-08-14T05:32:32.127Z,3.97
2023-08-14T05:35:16.772Z,4.13
2023-08-14T05:37:56.376Z,4.80
2023-08-14T05:40:24.458Z,4.00
2023-08-14T05:43:11.919Z,3.60
2023-08-14T05:45:48.099Z,3.83
2023-08-14T05:51:02.606Z,4.00
2023-08-14T05:53:32.879Z,3.30
2023-08-14T05:56:08.758Z,3.73
2023-08-14T05:58:38.250Z,3.77
2023-08-14T06:01:48.222Z,3.50
2023-08-14T06:04:15.592Z,3.57
2023-08-14T06:06:43.074Z,4.30
2023-08-14T06:09:10.489Z,3.60
2023-08-14T06:11:39.760Z,3.20
2023-08-14T06:14:09.950Z,3.17
2023-08-14T06:16:43.028Z,3.67
2023-08-14T06:19:13.071Z,3.00
2023-08-14T06:24:35.390Z,4.03
2023-08-14T06:27:05.585Z,3.57
2023-08-14T06:29:58.153Z,3.30
2023-08-14T06:32:25.446Z,3.33
2023-08-14T06:34:55.554Z,3.20
2023-08-14T06:37:36.632Z,3.00
2023-08-14T06:40:25.212Z,3.33
2023-08-14T06:43:40.020Z,3.33
2023-08-14T06:46:20.121Z,3.10
2023-08-14T06:48:56.249Z,2.87
2023-08-14T06:51:39.285Z,3.07
2023-08-14T06:54:09.358Z,3.00
2023-08-14T06:57:03.528Z,3.23
2023-08-14T06:59:46.537Z,3.00
2023-08-14T07:02:23.842Z,3.03
2023-08-14T07:04:59.435Z,3.37
2023-08-14T07:07:32.034Z,3.33
2023-08-14T07:10:19.908Z,3.17
2023-08-14T07:12:48.309Z,3.50
2023-08-14T08:34:02.581Z,3.10
2023-08-14T08:36:47.959Z,3.27
2023-08-14T08:50:17.075Z,3.97
2023-08-14T08:52:47.575Z,3.38
2023-08-14T08:58:42.320Z,2.85
2023-08-14T09:01:12.697Z,2.58
2023-08-14T09:04:03.225Z,2.85
2023-08-14T09:06:46.236Z,2.60
2023-08-14T09:12:11.971Z,2.90
2023-08-14T09:18:08.618Z,2.97
2023-08-14T09:20:47.933Z,2.85
2023-08-14T09:26:41.844Z,2.72
2023-08-14T09:29:19.123Z,2.83
2023-08-14T09:31:55.898Z,2.80
2023-08-14T09:34:25.651Z,3.25
2023-08-14T09:36:53.161Z,2.88
2023-08-14T09:39:21.935Z,2.92
2023-08-14T09:41:59.606Z,2.83
2023-08-14T09:44:30.316Z,3.05
2023-08-14T09:47:03.442Z,3.20
2023-08-14T09:49:38.953Z,2.75
2023-08-14T09:52:20.173Z,3.20
2023-08-14T09:55:04.126Z,2.88
2023-08-14T09:57:59.631Z,3.35
2023-08-14T10:00:45.799Z,3.33
2023-08-14T10:03:13.477Z,3.60
2023-08-14T10:05:44.563Z,2.70
2023-08-14T10:08:20.926Z,3.30
2023-08-14T10:11:05.503Z,3.03
2023-08-14T10:13:42.465Z,3.42
2023-08-14T10:16:17.336Z,2.50
2023-08-14T10:18:46.433Z,2.80
2023-08-14T10:21:19.001Z,3.40
2023-08-14T10:23:49.835Z,2.90
2023-08-14T10:26:58.501Z,2.72
2023-08-14T10:29:28.805Z,2.38
2023-08-14T10:32:05.800Z,3.00
2023-08-14T10:34:41.732Z,2.70
2023-08-14T10:37:09.057Z,3.42
2023-08-14T10:39:38.754Z,2.20
2023-08-14T10:42:08.250Z,2.90
2023-08-14T10:44:38.189Z,2.90
2023-08-14T10:47:21.062Z,3.30
2023-08-14T10:52:38.567Z,2.70
2023-08-14T10:55:25.115Z,2.53
2023-08-14T10:57:58.451Z,3.00
2023-08-14T11:00:38.263Z,2.75
2023-08-14T11:03:13.045Z,3.05
2023-08-14T11:05:46.622Z,2.75
2023-08-14T11:08:14.622Z,3.43
2023-08-14T11:10:43.526Z,2.70
2023-08-14T11:13:11.396Z,2.90
2023-08-14T11:15:42.601Z,2.97
2023-08-14T11:18:10.807Z,2.80
2023-08-14T11:20:39.021Z,3.00
2023-08-14T11:23:09.016Z,3.10
2023-08-14T11:25:37.846Z,3.33
2023-08-14T11:28:05.135Z,3.25
2023-08-14T11:30:34.412Z,3.40
2023-08-14T11:33:05.456Z,4.57
2023-08-14T11:35:32.847Z,3.63
2023-08-14T11:37:59.842Z,3.13
2023-08-14T11:40:27.220Z,4.28
2023-08-14T11:42:58.503Z,3.20
2023-08-14T11:45:26.148Z,3.97
2023-08-14T11:47:53.482Z,3.00
2023-08-14T11:50:20.661Z,2.85
2023-08-14T11:52:47.911Z,3.30
2023-08-14T11:55:15.022Z,3.00
2023-08-14T11:57:44.875Z,2.95
2023-08-14T12:00:16.316Z,3.15
2023-08-14T12:02:45.048Z,2.97
2023-08-14T12:05:12.084Z,4.22
2023-08-14T12:07:43.232Z,2.92
2023-08-14T12:10:10.830Z,2.75
2023-08-14T12:12:48.050Z,3.13
2023-08-14T12:15:24.471Z,3.53
2023-08-14T12:17:52.901Z,2.97
2023-08-14T12:20:23.588Z,2.65
2023-08-14T12:22:58.919Z,2.83
2023-08-14T12:25:29.935Z,2.70
2023-08-14T12:27:57.081Z,2.80
2023-08-14T12:30:24.075Z,2.85
2023-08-14T12:32:51.204Z,2.63
2023-08-14T12:35:18.206Z,2.65
2023-08-14T12:37:45.072Z,3.10
2023-08-14T12:40:12.117Z,2.80
2023-08-14T12:42:39.795Z,2.80
2023-08-14T12:45:07.517Z,2.88
2023-08-14T12:47:34.708Z,2.67
2023-08-14T12:50:01.744Z,2.92
2023-08-14T12:52:30.364Z,2.95
2023-08-14T12:55:05.626Z,3.00
2023-08-14T12:57:33.603Z,3.20
2023-08-14T13:00:00.845Z,2.67
2023-08-14T13:05:00.625Z,2.55
2023-08-14T13:07:29.356Z,2.85
2023-08-14T13:09:57.301Z,3.15
2023-08-14T13:12:24.851Z,3.35
2023-08-14T13:14:52.179Z,3.47
2023-08-14T13:17:19.711Z,3.05
2023-08-14T13:19:46.698Z,3.03
2023-08-14T13:22:16.892Z,2.83
2023-08-14T13:24:43.918Z,2.53
2023-08-14T13:27:10.888Z,2.88
2023-08-14T13:29:38.787Z,3.10
2023-08-14T13:32:06.376Z,3.10
2023-08-14T13:34:33.713Z,2.80
2023-08-14T13:37:00.783Z,3.13
2023-08-14T13:39:27.914Z,3.30
2023-08-14T13:41:54.922Z,3.25
2023-08-14T13:44:21.766Z,3.00
2023-08-14T13:46:48.670Z,2.97
2023-08-14T13:49:15.609Z,2.63
2023-08-14T13:51:45.531Z,3.63
2023-08-14T13:54:13.278Z,2.38
2023-08-14T13:56:40.968Z,2.88
2023-08-14T13:59:08.259Z,2.75
2023-08-14T14:01:35.514Z,2.65
2023-08-14T14:04:02.898Z,3.08
2023-08-14T14:06:33.126Z,2.60
2023-08-14T14:09:00.451Z,2.97
2023-08-14T14:11:34.266Z,3.20
2023-08-14T14:14:03.489Z,2.60
2023-08-14T14:16:54.593Z,3.13
2023-08-14T14:19:21.908Z,3.03
2023-08-14T14:21:49.182Z,3.05
2023-08-14T14:24:19.116Z,2.85
2023-08-14T14:26:46.477Z,3.05
2023-08-14T14:29:13.817Z,2.75
2023-08-14T14:31:41.153Z,2.70
2023-08-14T14:34:08.778Z,2.85
2023-08-14T14:36:36.558Z,3.45
2023-08-14T14:39:04.820Z,3.50
2023-08-14T14:41:32.088Z,3.47
2023-08-14T14:43:59.669Z,2.97
2023-08-14T14:46:27.082Z,3.25
2023-08-14T14:48:54.658Z,2.83
2023-08-14T14:51:21.950Z,2.60
2023-08-14T14:53:49.593Z,2.92
2023-08-14T14:56:17.345Z,2.80
2023-08-14T14:58:45.072Z,2.80
2023-08-14T15:01:15.240Z,2.83
2023-08-14T15:03:42.774Z,2.85
2023-08-14T15:06:13.088Z,3.00
2023-08-14T15:08:40.876Z,2.95
2023-08-14T15:11:08.541Z,2.90
2023-08-14T15:13:35.900Z,2.65
2023-08-14T15:16:03.291Z,2.53
2023-08-14T15:18:31.017Z,2.85
2023-08-14T15:20:58.263Z,3.00
2023-08-14T15:23:25.480Z,2.70
2023-08-14T15:25:53.052Z,2.73
2023-08-14T15:28:20.711Z,2.40
2023-08-14T15:30:47.715Z,3.10
2023-08-14T15:33:14.564Z,3.13
2023-08-14T15:35:41.558Z,2.80
2023-08-14T15:38:08.438Z,3.10
2023-08-14T15:40:35.766Z,3.07
2023-08-14T15:43:03.488Z,2.50
2023-08-14T15:45:30.607Z,2.87
2023-08-14T15:47:59.560Z,4.37
2023-08-14T15:50:26.571Z,3.00
2023-08-14T15:52:53.956Z,3.33
2023-08-14T15:55:20.910Z,3.67
2023-08-14T15:57:48.132Z,2.60
2023-08-14T16:00:15.324Z,2.77
2023-08-14T16:02:42.522Z,2.83
2023-08-14T16:05:09.719Z,2.60
2023-08-14T16:07:36.832Z,2.93
2023-08-14T16:10:04.755Z,2.73
2023-08-14T16:12:31.828Z,2.63
2023-08-14T16:15:00.526Z,2.53
2023-08-14T16:17:28.106Z,2.83
2023-08-14T16:19:55.424Z,2.90
2023-08-14T16:22:22.272Z,2.47
2023-08-14T16:24:49.177Z,2.70
2023-08-14T16:27:16.506Z,2.33
2023-08-14T16:29:43.824Z,2.60
2023-08-14T16:32:10.717Z,2.40
2023-08-14T16:34:38.100Z,2.50
2023-08-14T16:37:05.441Z,2.70
2023-08-14T16:39:32.821Z,3.10
2023-08-14T16:42:00.102Z,2.40
2023-08-14T16:44:26.984Z,2.70
2023-08-14T16:46:54.262Z,3.30
2023-08-14T16:49:21.537Z,2.60
2023-08-14T16:51:48.784Z,2.40
2023-08-14T16:54:15.752Z,2.63
2023-08-14T16:56:42.710Z,2.70
2023-08-14T16:59:09.813Z,2.53
2023-08-14T17:01:36.800Z,2.80
2023-08-14T17:04:04.304Z,2.60
2023-08-14T17:06:33.574Z,2.80
2023-08-14T17:09:01.696Z,3.23
2023-08-14T17:11:28.642Z,3.47
2023-08-14T17:13:56.081Z,2.60
2023-08-14T17:16:23.398Z,2.63
2023-08-14T17:18:50.353Z,3.17
2023-08-14T17:21:17.242Z,2.63
2023-08-14T17:23:44.589Z,2.90
2023-08-14T17:26:11.864Z,4.30
2023-08-14T17:28:39.227Z,3.20
2023-08-14T17:31:06.678Z,2.80
2023-08-14T17:33:33.731Z,3.10
2023-08-14T17:36:01.090Z,3.27
2023-08-14T17:38:28.364Z,3.20
2023-08-14T17:40:55.476Z,3.70
2023-08-14T17:43:22.578Z,2.70
2023-08-14T17:45:50.602Z,2.90
2023-08-14T17:48:18.003Z,3.20
2023-08-14T17:50:50.861Z,3.00
2023-08-14T17:53:18.543Z,3.40
2023-08-14T17:55:45.676Z,3.30
2023-08-14T17:58:12.602Z,3.30
2023-08-14T18:00:40.416Z,2.93
2023-08-14T18:03:07.889Z,3.37
2023-08-14T18:05:36.155Z,3.23
2023-08-14T18:08:03.092Z,3.20
2023-08-14T18:10:30.437Z,2.97
2023-08-14T18:12:57.445Z,3.57
2023-08-14T18:15:27.426Z,2.87
2023-08-14T18:17:54.353Z,3.03
2023-08-14T18:20:21.680Z,3.40
2023-08-14T18:22:48.561Z,3.23
2023-08-14T18:25:18.386Z,2.83
2023-08-14T18:27:45.487Z,3.23
2023-08-14T18:30:12.644Z,3.67
2023-08-14T18:32:39.710Z,3.57
2023-08-14T18:35:07.370Z,3.20
2023-08-14T18:37:34.544Z,3.53
2023-08-14T18:40:04.103Z,3.30
2023-08-14T18:42:36.810Z,4.27
2023-08-14T18:45:04.238Z,3.17
2023-08-14T18:47:33.584Z,3.03
2023-08-14T18:50:00.788Z,2.73
2023-08-14T18:52:28.724Z,2.80
2023-08-14T18:54:56.113Z,3.80
2023-08-14T18:57:23.243Z,3.50
2023-08-14T18:59:50.305Z,4.30
2023-08-14T19:02:17.383Z,3.83
2023-08-14T19:04:44.467Z,3.93
2023-08-14T19:07:12.644Z,3.77
2023-08-14T19:09:39.668Z,4.10
2023-08-14T19:12:08.129Z,3.33
2023-08-14T19:14:36.337Z,3.17
2023-08-14T19:17:04.304Z,3.37
2023-08-14T19:19:31.224Z,3.53
2023-08-14T19:21:58.284Z,3.30
2023-08-14T19:24:25.354Z,3.23
2023-08-14T19:26:52.262Z,2.93
2023-08-14T19:29:19.545Z,3.23
2023-08-14T19:31:46.447Z,2.90
2023-08-14T19:34:13.452Z,3.17
2023-08-14T19:36:40.407Z,3.40
2023-08-14T19:39:07.258Z,3.23
2023-08-14T19:41:34.163Z,2.70
2023-08-14T19:44:04.898Z,3.43
2023-08-14T19:46:32.422Z,3.10
2023-08-14T19:48:59.562Z,3.30
2023-08-14T19:51:26.517Z,3.10
2023-08-14T19:53:53.535Z,2.93
2023-08-14T19:56:21.237Z,3.27
2023-08-14T19:58:48.191Z,3.47
2023-08-14T20:01:15.315Z,2.80
2023-08-14T20:03:44.435Z,3.10
2023-08-14T20:06:12.177Z,2.83
2023-08-14T20:08:39.846Z,3.03
2023-08-14T20:11:06.839Z,3.10
2023-08-14T20:13:33.769Z,3.37
2023-08-14T20:16:01.633Z,3.53
2023-08-14T20:18:30.320Z,3.30
2023-08-14T20:20:59.221Z,4.53
2023-08-14T20:23:26.230Z,5.20
2023-08-14T20:25:53.106Z,4.83
2023-08-14T20:28:20.250Z,4.20
2023-08-14T20:30:47.360Z,4.60
2023-08-14T20:33:15.609Z,4.23
2023-08-14T20:35:43.987Z,3.90
2023-08-14T20:38:11.783Z,4.37
2023-08-14T20:40:39.474Z,4.13
2023-08-14T20:43:10.472Z,4.13
2023-08-14T20:45:38.292Z,4.93
2023-08-14T20:48:06.911Z,6.10
2023-08-14T20:50:34.245Z,6.60
2023-08-14T20:53:01.297Z,6.73
2023-08-14T20:55:30.897Z,5.77
2023-08-14T20:57:57.806Z,6.07
2023-08-14T21:00:24.684Z,5.27
2023-08-14T21:02:52.020Z,5.93
2023-08-14T21:05:19.077Z,6.50
2023-08-14T21:07:46.167Z,6.17
2023-08-14T21:10:13.508Z,5.83
2023-08-14T21:12:40.487Z,6.20
2023-08-14T21:15:07.737Z,6.47
2023-08-14T21:17:34.769Z,6.07
2023-08-14T21:20:01.688Z,4.90
2023-08-14T21:22:28.563Z,6.07
2023-08-14T21:24:55.801Z,5.90
2023-08-14T21:27:22.837Z,5.30
2023-08-14T21:29:50.315Z,5.50
2023-08-14T21:32:17.679Z,5.57
2023-08-14T21:34:47.165Z,5.87
2023-08-14T21:37:14.068Z,5.83
2023-08-14T21:39:41.575Z,5.90
2023-08-14T21:42:08.552Z,5.30
2023-08-14T21:44:35.794Z,5.67
2023-08-14T21:47:02.676Z,5.70
2023-08-14T21:49:29.585Z,5.57
2023-08-14T21:51:56.483Z,5.67
2023-08-14T21:54:23.317Z,6.07
2023-08-14T21:56:50.627Z,6.20
2023-08-14T21:59:17.508Z,6.93
2023-08-14T22:01:45.563Z,5.77
2023-08-14T22:04:12.951Z,6.60
2023-08-14T22:06:40.317Z,6.33
2023-08-14T22:09:07.541Z,7.00
2023-08-14T22:11:35.166Z,5.90
2023-08-14T22:14:02.560Z,5.60
2023-08-14T22:16:29.678Z,5.73
2023-08-14T22:18:57.039Z,5.90
2023-08-14T22:21:24.042Z,5.67
2023-08-14T22:23:50.955Z,5.63
2023-08-14T22:26:18.316Z,6.10
2023-08-14T22:28:45.630Z,5.57
2023-08-14T22:31:15.976Z,5.80
2023-08-14T22:33:43.416Z,5.83
2023-08-14T22:36:10.851Z,5.67
2023-08-14T22:38:38.440Z,5.20
2023-08-14T22:41:05.811Z,6.10
2023-08-14T22:43:33.071Z,5.60
2023-08-14T22:46:00.151Z,5.40
2023-08-14T22:48:27.141Z,5.70
2023-08-14T22:50:54.449Z,6.00
2023-08-14T22:53:22.814Z,6.13
2023-08-14T22:55:50.042Z,5.23
2023-08-14T22:58:17.172Z,5.60
2023-08-14T23:00:44.135Z,5.30
2023-08-14T23:03:11.117Z,6.13
2023-08-14T23:05:38.050Z,5.90
2023-08-14T23:08:05.409Z,6.70
2023-08-14T23:10:33.824Z,7.00
2023-08-14T23:13:01.123Z,7.73
2023-08-14T23:15:28.047Z,7.67
2023-08-14T23:17:55.024Z,7.93
2023-08-14T23:20:21.991Z,8.93
2023-08-14T23:22:48.921Z,9.47
2023-08-14T23:25:15.870Z,7.43
2023-08-14T23:27:43.109Z,8.10
2023-08-14T23:30:10.504Z,8.07
2023-08-14T23:32:37.475Z,8.23
2023-08-14T23:35:05.337Z,7.87
2023-08-14T23:37:32.639Z,9.53
2023-08-14T23:39:59.860Z,7.50
2023-08-14T23:42:27.131Z,7.97
2023-08-14T23:44:53.987Z,9.40
2023-08-14T23:47:21.469Z,8.77
2023-08-14T23:49:49.371Z,10.13
2023-08-14T23:52:17.333Z,9.13
2023-08-14T23:54:44.659Z,10.10
2023-08-14T23:57:11.873Z,8.87
2023-08-14T23:59:38.843Z,8.97
